Beulah, ND (58523)

2:52 PM CDT on July 22, 2014 (GMT -0500)
NDDOT Golden Valley ND 200 MP 131 (MND004) Elev 2164 ft | 47.30 °N, 102.05 °W | Change Station

Current weather conditions updated 48 minutes ago

Clear
Clear
76 °F
Feels Like 78 °F
N
2
Wind Variable Wind from West
Gusts 3.0 mph

Today is forecast to be nearly the same temperature as yesterday.

Today
High -- | Low -- °F
--% Chance of Precip.
Yesterday
High -- | Low -- °F
Precip. -- in
6:13 AM 9:32 PM
Waning Crescent, 15% visible
Pressure 30.20 in
Visibility 10.0 miles
Clouds Few 3200 ft
Heat Index 78 °F
Dew Point 57 °F
Humidity 52%
Rainfall -999.00 in
Snow Depth Not available.
UV 10 out of 12
Pollen 5.40 out of 12
Air Quality Not available.
Flu Activity Sporadic
METAR KD57 221935Z AUTO 00000KT 10SM FEW032 25/16 A3020 RMK AO2

More Conditions Fewer Conditions

Pressure 30.20 in
Visibility 10.0 miles
Clouds Few 3200 ft
Heat Index 78 °F
Dew Point 57 °F
Humidity 52%
Rainfall -999.00 in
Snow Depth Not available.
UV 10 out of 12
Pollen 5.40 out of 12
Air Quality Not available.
Flu Activity Sporadic
METAR KD57 221935Z AUTO 00000KT 10SM FEW032 25/16 A3020 RMK AO2

More Conditions Fewer Conditions

10-Day Weather Forecast

Almanac

Astronomy

Jul. 22, 2014 Rise Set
Actual Time 6:13 AM CDT 9:32 PM CDT
Civil Twilight 5:36 AM CDT 10:09 PM CDT
Nautical Twilight 4:47 AM CDT 10:58 PM CDT
Astronomical Twilight 3:44 AM CDT 12:00 AM CDT
Moon 2:51 AM CDT 6:10 PM CDT
Length of Visible Light 16h 33m
Length of Day
15h 18m
Tomorrow will be 2m 14s shorter.
Waning Crescent, 15% of the Moon is Illuminated
Today
Waning Crescent
Jul 26
New
Aug 3
First Quarter
Aug 10
Full
Aug 17
Last Quarter

Today's Extremes

State Highs State Lows

Community

WunderPhotos

Upload Photos

1,736,341 photos uploaded!

Nearby

Snow Depth

Station Depth Elevation
No new snow has been reported.

Earthquake Activity

City Distance Mag. Time & Date
No recent earthquake activity has been reported nearby.
Minimum magnitude displayed is 2.5.

Coastal Water Temperatures

Place Temperature
No Stations Reporting

Nearby Weather Stations

Station Location Temp. Heat Index Dew Point Humidity Wind Precip. Elev Updated Type
NDDOT Golden Valley ND 200 MP 131, Golden Valley, ND 76 °F 78 °F 57 °F 52% West  at  2 mph 0.00 in / hr 2164 ft 1:04 PM MDT MADIS
RAWS KNIFE RIVER ND, Stanton, ND 81 °F 83 °F 65 °F 58% South  at  3 mph 0.00 in / hr 1700 ft 12:50 PM MDT MADIS
Rural Oliver County, Hannover, ND 78.5 °F 80 °F 66 °F 65% ENE  at  1.0 mph 0.00 in / hr 2162 ft 2:45 PM CDT Normal
Underwood Boat Landing, Underwood, ND 79.5 °F 82 °F 66 °F 63% WNW  at  1.0 mph 0.00 in / hr 1713 ft 2:52 PM CDT Rapid Fire

Show More Stations Show Fewer Stations